Terminal Aerodrome Forecast
Issued by NWS Boston, MA

Home | Current Version | Previous Version | Text Only | Print | Product List | Glossary On
Versions: 1 2 3 4 5 6 7 8 9 10 11 12 13 14 15 16 17 18 19 20 21 22 23 24
000
FTUS41 KBOX 231731
TAFBDL
TAF
KBDL 231731Z 2318/2424 VRB03KT 2SM RA BR OVC003 WS020/19035KT
     FM232000 19010KT 3SM -RA BR OVC010
     FM232200 23004KT P6SM OVC025
     FM240000 24007G19KT P6SM SCT130
     FM240200 25008KT P6SM SCT200
     FM241200 29012KT P6SM BKN035
     FM241400 29012G22KT P6SM SCT030
     FM241600 30011G25KT P6SM SCT100=

USA.gov is the U.S. government's official web portal to all federal, state and local government web resources and services.